Terminal Aerodrome Forecast
Issued by NWS

Home | Current Version | Previous Version | Text Only | Print | Product List | Glossary On
Versions: 1 2 3 4 5 6 7 8 9 10 11 12 13 14
270
FTUS43 KUNR 292320
TAFGCC
TAF
KGCC 292320Z 3000/3024 19008KT P6SM SCT120
     FM301400 33015G25KT P6SM SCT050=

USA.gov is the U.S. government's official web portal to all federal, state and local government web resources and services.